createdAt,value
2019-04-05T00:00:33.284Z,30.20
2019-04-05T00:01:33.408Z,31.40
2019-04-05T00:02:33.268Z,32.60
2019-04-05T00:03:33.344Z,29.20
2019-04-05T00:04:33.249Z,28.10
2019-04-05T00:05:33.342Z,30.80
2019-04-05T00:06:33.228Z,31.80
2019-04-05T00:07:33.238Z,29.50
2019-04-05T00:08:33.233Z,31.30
2019-04-05T00:09:33.257Z,30.10
2019-04-05T00:10:33.183Z,30.00
2019-04-05T00:11:33.275Z,29.60
2019-04-05T00:12:33.166Z,31.60
2019-04-05T00:13:33.206Z,34.10
2019-04-05T00:14:33.138Z,34.20
2019-04-05T00:15:33.193Z,31.30
2019-04-05T00:16:33.117Z,33.00
2019-04-05T00:17:33.208Z,37.10
2019-04-05T00:18:33.222Z,31.80
2019-04-05T00:19:33.123Z,32.30
2019-04-05T00:20:33.083Z,30.70
2019-04-05T00:21:33.140Z,29.10
2019-04-05T00:22:33.060Z,30.40
2019-04-05T00:23:33.176Z,30.30
2019-04-05T00:24:33.052Z,30.30
2019-04-05T00:25:33.063Z,31.90
2019-04-05T00:26:33.023Z,33.30
2019-04-05T00:27:33.083Z,32.00
2019-04-05T00:28:32.996Z,32.10
2019-04-05T00:29:33.123Z,30.90
2019-04-05T00:30:33.098Z,31.50
2019-04-05T00:31:32.997Z,34.00
2019-04-05T00:32:32.998Z,29.80
2019-04-05T00:33:33.040Z,35.70
2019-04-05T00:34:32.997Z,30.50
2019-04-05T00:35:33.066Z,29.50
2019-04-05T00:36:32.910Z,32.60
2019-04-05T00:37:32.937Z,33.00
2019-04-05T00:38:32.890Z,34.00
2019-04-05T00:39:34.005Z,30.90
2019-04-05T00:40:32.859Z,31.90
2019-04-05T00:41:33.255Z,27.90
2019-04-05T00:42:32.835Z,29.50
2019-04-05T00:43:32.884Z,33.60
2019-04-05T00:44:32.864Z,29.50
2019-04-05T00:45:32.899Z,30.70
2019-04-05T00:46:32.801Z,30.50
2019-04-05T00:47:32.901Z,29.00
2019-04-05T00:48:32.793Z,31.90
2019-04-05T00:49:32.850Z,28.20
2019-04-05T00:50:32.754Z,32.40
2019-04-05T00:51:32.827Z,33.40
2019-04-05T00:52:32.734Z,29.20
2019-04-05T00:53:32.845Z,34.00
2019-04-05T00:54:32.752Z,29.40
2019-04-05T00:55:32.756Z,30.60
2019-04-05T00:56:32.689Z,28.50
2019-04-05T00:57:32.764Z,28.40
2019-04-05T00:58:32.667Z,27.20
2019-04-05T00:59:32.710Z,29.60
2019-04-05T01:00:32.648Z,30.20
2019-04-05T01:01:32.693Z,28.20
2019-04-05T01:02:32.624Z,28.60
2019-04-05T01:03:32.712Z,26.60
2019-04-05T01:04:32.655Z,28.20
2019-04-05T01:05:32.647Z,27.20
2019-04-05T01:06:32.589Z,30.40
2019-04-05T01:07:32.632Z,28.70
2019-04-05T01:08:32.560Z,28.90
2019-04-05T01:09:32.673Z,26.30
2019-04-05T01:10:32.564Z,27.70
2019-04-05T01:11:32.555Z,28.10
2019-04-05T01:12:33.012Z,30.80
2019-04-05T01:13:32.575Z,32.20
2019-04-05T01:14:32.497Z,31.30
2019-04-05T01:15:40.693Z,27.20
2019-04-05T01:16:33.473Z,29.20
2019-04-05T01:17:32.502Z,31.00
2019-04-05T01:18:32.455Z,30.50
2019-04-05T01:19:32.513Z,33.80
2019-04-05T01:20:32.453Z,34.10
2019-04-05T01:21:32.523Z,38.10
2019-04-05T01:22:32.412Z,39.60
2019-04-05T01:23:32.443Z,31.20
2019-04-05T01:24:32.402Z,34.60
2019-04-05T01:25:33.507Z,36.80
2019-04-05T01:26:32.367Z,32.80
2019-04-05T01:27:32.465Z,29.80
2019-04-05T01:28:32.349Z,31.30
2019-04-05T01:29:32.394Z,27.10
2019-04-05T01:30:32.367Z,28.40
2019-04-05T01:31:32.388Z,32.30
2019-04-05T01:32:32.299Z,35.70
2019-04-05T01:33:32.404Z,28.60
2019-04-05T01:34:32.312Z,31.20
2019-04-05T01:35:32.316Z,29.60
2019-04-05T01:36:32.285Z,33.80
2019-04-05T01:37:32.330Z,35.80
2019-04-05T01:38:32.243Z,35.50
2019-04-05T01:39:32.340Z,33.80
2019-04-05T01:40:32.215Z,31.30
2019-04-05T01:41:32.287Z,33.50
2019-04-05T01:42:32.199Z,34.70
2019-04-05T01:43:32.271Z,33.20
2019-04-05T01:44:32.183Z,34.40
2019-04-05T01:45:32.280Z,30.90
2019-04-05T01:46:32.175Z,31.30
2019-04-05T01:47:32.195Z,32.70
2019-04-05T01:48:32.131Z,35.60
2019-04-05T01:49:32.207Z,38.90
2019-04-05T01:50:32.111Z,36.70
2019-04-05T01:51:32.156Z,34.50
2019-04-05T01:52:32.127Z,35.90
2019-04-05T01:53:32.131Z,30.70
2019-04-05T01:54:32.075Z,31.00
2019-04-05T01:55:32.151Z,36.00
2019-04-05T01:56:32.079Z,29.20
2019-04-05T01:57:32.061Z,34.60
2019-04-05T01:58:32.030Z,35.30
2019-04-05T01:59:32.082Z,39.50
2019-04-05T02:00:32.005Z,38.40
2019-04-05T02:01:32.121Z,41.60
2019-04-05T02:02:31.983Z,41.30
2019-04-05T02:03:31.996Z,50.10
2019-04-05T02:04:31.964Z,45.30
2019-04-05T02:05:32.013Z,43.00
2019-04-05T02:06:31.977Z,38.90
2019-04-05T02:07:32.024Z,39.60
2019-04-05T02:08:31.923Z,39.60
2019-04-05T02:09:31.936Z,40.70
2019-04-05T02:10:31.897Z,43.20
2019-04-05T02:11:33.002Z,58.70
2019-04-05T02:12:31.913Z,61.80
2019-04-05T02:13:31.962Z,50.70
2019-04-05T02:14:31.863Z,50.60
2019-04-05T02:15:31.876Z,46.60
2019-04-05T02:16:31.868Z,39.90
2019-04-05T02:17:35.710Z,41.90
2019-04-05T02:18:31.808Z,43.50
2019-04-05T02:19:31.902Z,44.40
2019-04-05T02:20:31.795Z,39.70
2019-04-05T02:21:31.849Z,46.40
2019-04-05T02:22:31.789Z,40.70
2019-04-05T02:23:31.836Z,38.40
2019-04-05T02:24:31.756Z,43.40
2019-04-05T02:25:31.847Z,39.40
2019-04-05T02:26:31.729Z,42.30
2019-04-05T02:27:31.786Z,39.40
2019-04-05T02:28:31.705Z,38.60
2019-04-05T02:29:31.771Z,36.30
2019-04-05T02:30:31.803Z,41.30
2019-04-05T02:31:31.794Z,39.50
2019-04-05T02:32:31.690Z,39.70
2019-04-05T02:33:31.717Z,44.20
2019-04-05T02:34:31.645Z,44.80
2019-04-05T02:35:31.720Z,45.80
2019-04-05T02:36:31.618Z,41.10
2019-04-05T02:37:31.764Z,48.20
2019-04-05T02:38:31.598Z,42.60
2019-04-05T02:39:31.652Z,40.50
2019-04-05T02:40:31.586Z,45.40
2019-04-05T02:41:31.653Z,56.60
2019-04-05T02:42:31.580Z,45.30
2019-04-05T02:43:31.697Z,44.40
2019-04-05T02:44:31.536Z,45.40
2019-04-05T02:45:31.592Z,47.60
2019-04-05T02:46:31.513Z,43.40
2019-04-05T02:47:31.591Z,41.30
2019-04-05T02:48:31.522Z,41.00
2019-04-05T02:49:31.604Z,44.60
2019-04-05T02:50:31.464Z,40.30
2019-04-05T02:51:31.534Z,42.00
2019-04-05T02:52:31.448Z,48.50
2019-04-05T02:53:31.554Z,39.60
2019-04-05T02:54:31.494Z,48.50
2019-04-05T02:55:31.545Z,49.10
2019-04-05T02:56:31.423Z,49.40
2019-04-05T02:57:31.453Z,48.80
2019-04-05T02:58:31.418Z,45.60
2019-04-05T02:59:31.476Z,49.10
2019-04-05T03:00:31.380Z,44.20
2019-04-05T03:01:31.378Z,53.50
2019-04-05T03:02:31.344Z,40.60
2019-04-05T03:03:31.526Z,36.00
2019-04-05T03:04:31.321Z,41.40
2019-04-05T03:05:31.421Z,46.80
2019-04-05T03:06:31.319Z,48.20
2019-04-05T03:07:31.326Z,44.70
2019-04-05T03:08:31.321Z,45.20
2019-04-05T03:09:31.334Z,46.00
2019-04-05T03:10:31.254Z,48.20
2019-04-05T03:11:31.346Z,41.20
2019-04-05T03:12:31.241Z,45.60
2019-04-05T03:13:31.270Z,52.60
2019-04-05T03:14:31.270Z,48.10
2019-04-05T03:15:31.277Z,46.40
2019-04-05T03:16:40.039Z,46.10
2019-04-05T03:17:32.188Z,59.90
2019-04-05T03:18:31.308Z,55.00
2019-04-05T03:19:31.350Z,53.50
2019-04-05T03:20:31.204Z,52.70
2019-04-05T03:21:31.197Z,46.30
2019-04-05T03:22:31.225Z,44.70
2019-04-05T03:23:31.123Z,52.80
2019-04-05T03:24:31.188Z,55.70
2019-04-05T03:25:31.091Z,64.70
2019-04-05T03:26:31.152Z,56.20
2019-04-05T03:27:31.075Z,53.80
2019-04-05T03:28:31.162Z,50.50
2019-04-05T03:29:31.082Z,48.00
2019-04-05T03:30:31.082Z,49.30
2019-04-05T03:31:31.047Z,48.80
2019-04-05T03:32:31.087Z,48.70
2019-04-05T03:33:31.046Z,59.60
2019-04-05T03:34:31.137Z,54.30
2019-04-05T03:35:30.991Z,57.30
2019-04-05T03:36:31.013Z,53.90
2019-04-05T03:37:30.978Z,56.40
2019-04-05T03:38:31.032Z,50.00
2019-04-05T03:39:31.107Z,51.00
2019-04-05T03:40:31.065Z,52.60
2019-04-05T03:41:30.925Z,54.40
2019-04-05T03:42:30.955Z,58.30
2019-04-05T03:43:30.904Z,48.40
2019-04-05T03:44:30.975Z,50.70
2019-04-05T03:45:30.909Z,56.50
2019-04-05T03:46:30.985Z,53.80
2019-04-05T03:47:30.864Z,54.10
2019-04-05T03:48:30.897Z,59.70
2019-04-05T03:49:30.838Z,51.50
2019-04-05T03:50:30.936Z,56.90
2019-04-05T03:51:30.842Z,50.60
2019-04-05T03:52:30.946Z,47.90
2019-04-05T03:53:30.815Z,47.30
2019-04-05T03:54:30.839Z,44.70
2019-04-05T03:55:30.805Z,47.80
2019-04-05T03:56:30.844Z,55.00
2019-04-05T03:57:30.769Z,51.30
2019-04-05T03:58:30.853Z,54.10
2019-04-05T03:59:30.738Z,60.80
2019-04-05T04:00:30.808Z,50.20
2019-04-05T04:01:30.713Z,48.20
2019-04-05T04:02:30.792Z,47.90
2019-04-05T04:03:30.692Z,48.10
2019-04-05T04:04:30.796Z,58.40
2019-04-05T04:05:30.711Z,48.00
2019-04-05T04:06:30.711Z,55.10
2019-04-05T04:07:30.651Z,67.50
2019-04-05T04:08:30.720Z,53.40
2019-04-05T04:09:30.629Z,56.90
2019-04-05T04:10:30.772Z,62.80
2019-04-05T04:11:30.604Z,50.50
2019-04-05T04:12:30.648Z,50.70
2019-04-05T04:13:30.586Z,57.60
2019-04-05T04:14:30.674Z,50.70
2019-04-05T04:15:30.567Z,64.60
2019-04-05T04:16:30.714Z,53.10
2019-04-05T04:17:30.538Z,54.80
2019-04-05T04:18:30.587Z,50.80
2019-04-05T04:19:30.532Z,52.30
2019-04-05T04:20:30.615Z,50.30
2019-04-05T04:21:30.525Z,55.10
2019-04-05T04:22:30.614Z,60.60
2019-04-05T04:23:30.489Z,49.00
2019-04-05T04:24:30.527Z,62.20
2019-04-05T04:25:30.451Z,60.90
2019-04-05T04:26:30.568Z,64.90
2019-04-05T04:27:30.458Z,59.10
2019-04-05T04:28:30.454Z,62.60
2019-04-05T04:29:30.414Z,65.50
2019-04-05T04:30:30.476Z,57.90
2019-04-05T04:31:30.419Z,65.80
2019-04-05T04:32:30.477Z,59.50
2019-04-05T04:33:30.370Z,51.40
2019-04-05T04:34:30.393Z,57.90
2019-04-05T04:35:30.355Z,59.50
2019-04-05T04:36:30.440Z,63.60
2019-04-05T04:37:30.324Z,71.50
2019-04-05T04:38:30.426Z,69.60
2019-04-05T04:39:30.315Z,59.80
2019-04-05T04:40:30.331Z,72.00
2019-04-05T04:41:32.006Z,67.90
2019-04-05T04:42:30.344Z,58.70
2019-04-05T04:43:30.275Z,61.60
2019-04-05T04:44:30.354Z,53.10
2019-04-05T04:45:30.243Z,65.80
2019-04-05T04:46:30.318Z,60.90
2019-04-05T04:47:30.219Z,57.90
2019-04-05T04:48:30.290Z,63.50
2019-04-05T04:49:30.200Z,57.70
2019-04-05T04:50:30.301Z,54.70
2019-04-05T04:51:30.215Z,59.20
2019-04-05T04:52:31.493Z,73.00
2019-04-05T04:53:30.276Z,62.70
2019-04-05T04:54:30.216Z,74.00
2019-04-05T04:55:30.132Z,73.50
2019-04-05T04:56:30.263Z,56.80
2019-04-05T04:57:30.133Z,60.20
2019-04-05T04:58:30.245Z,66.60
2019-04-05T04:59:30.109Z,57.20
2019-04-05T05:00:30.164Z,56.80
2019-04-05T05:01:30.069Z,60.90
2019-04-05T05:02:30.214Z,57.60
2019-04-05T05:03:30.073Z,70.40
2019-04-05T05:04:30.087Z,67.50
2019-04-05T05:05:30.024Z,65.00
2019-04-05T05:06:30.107Z,62.00
2019-04-05T05:07:30.026Z,68.50
2019-04-05T05:08:30.125Z,59.60
2019-04-05T05:09:29.979Z,68.10
2019-04-05T05:10:30.068Z,57.70
2019-04-05T05:11:29.968Z,58.60
2019-04-05T05:12:30.134Z,61.20
2019-04-05T05:13:29.941Z,59.10
2019-04-05T05:14:30.047Z,66.00
2019-04-05T05:15:29.915Z,66.50
2019-04-05T05:16:29.963Z,58.20
2019-04-05T05:17:38.306Z,65.00
2019-04-05T05:18:30.886Z,58.00
2019-04-05T05:19:29.997Z,60.90
2019-04-05T05:20:29.867Z,59.50
2019-04-05T05:21:29.914Z,59.60
2019-04-05T05:22:29.870Z,57.70
2019-04-05T05:23:29.911Z,63.60
2019-04-05T05:24:29.933Z,63.00
2019-04-05T05:25:29.921Z,58.00
2019-04-05T05:26:29.802Z,60.20
2019-04-05T05:27:29.864Z,70.50
2019-04-05T05:28:32.684Z,65.90
2019-04-05T05:29:29.846Z,64.20
2019-04-05T05:30:29.765Z,60.80
2019-04-05T05:31:29.876Z,60.90
2019-04-05T05:32:29.764Z,70.00
2019-04-05T05:33:29.913Z,62.50
2019-04-05T05:34:29.713Z,68.80
2019-04-05T05:35:29.786Z,62.40
2019-04-05T05:36:29.693Z,66.20
2019-04-05T05:37:32.637Z,61.20
2019-04-05T05:38:29.709Z,54.90
2019-04-05T05:39:29.718Z,60.20
2019-04-05T05:40:35.092Z,71.00
2019-04-05T05:41:30.755Z,63.70
2019-04-05T05:42:29.628Z,63.40
2019-04-05T05:43:29.777Z,68.50
2019-04-05T05:44:29.603Z,71.10
2019-04-05T05:45:29.651Z,59.30
2019-04-05T05:46:29.808Z,63.40
2019-04-05T05:47:29.665Z,59.50
2019-04-05T05:48:31.010Z,61.50
2019-04-05T05:49:29.689Z,61.90
2019-04-05T05:50:29.617Z,62.30
2019-04-05T05:51:29.593Z,63.90
2019-04-05T05:52:29.520Z,54.10
2019-04-05T05:53:29.637Z,57.20
2019-04-05T05:54:29.499Z,60.90
2019-04-05T05:55:30.263Z,60.00
2019-04-05T05:56:29.480Z,55.00
2019-04-05T05:57:29.482Z,62.10
2019-04-05T05:58:29.487Z,53.90
2019-04-05T05:59:30.332Z,59.20
2019-04-05T06:00:31.085Z,60.00
2019-04-05T06:01:29.430Z,62.20
2019-04-05T06:02:29.416Z,63.40
2019-04-05T06:03:29.471Z,55.10
2019-04-05T06:04:29.416Z,62.00
2019-04-05T06:05:29.389Z,58.50
2019-04-05T06:06:29.368Z,67.20
2019-04-05T06:07:29.366Z,71.60
2019-04-05T06:08:29.494Z,71.70
2019-04-05T06:09:29.369Z,65.80
2019-04-05T06:10:29.328Z,65.10
2019-04-05T06:11:29.327Z,66.20
2019-04-05T06:12:29.311Z,69.90
2019-04-05T06:13:29.311Z,64.70
2019-04-05T06:14:29.310Z,60.70
2019-04-05T06:15:29.297Z,70.70
2019-04-05T06:16:29.269Z,61.40
2019-04-05T06:17:29.273Z,68.90
2019-04-05T06:18:29.344Z,77.00
2019-04-05T06:19:29.272Z,65.10
2019-04-05T06:20:29.233Z,64.80
2019-04-05T06:21:29.233Z,70.00
2019-04-05T06:22:29.222Z,59.80
2019-04-05T06:23:33.850Z,61.00
2019-04-05T06:24:30.221Z,59.40
2019-04-05T06:25:29.179Z,58.70
2019-04-05T06:26:29.161Z,52.40
2019-04-05T06:27:29.151Z,56.70
2019-04-05T06:28:29.197Z,62.60
2019-04-05T06:29:29.154Z,59.20
2019-04-05T06:30:29.212Z,58.80
2019-04-05T06:31:29.157Z,55.40
2019-04-05T06:32:29.113Z,58.30
2019-04-05T06:33:31.873Z,60.60
2019-04-05T06:34:29.203Z,59.30
2019-04-05T06:35:29.190Z,58.70
2019-04-05T06:36:29.060Z,53.00
2019-04-05T06:37:29.048Z,49.50
2019-04-05T06:38:29.032Z,54.30
2019-04-05T06:39:29.050Z,53.80
2019-04-05T06:40:40.196Z,68.90
2019-04-05T06:41:30.015Z,53.40
2019-04-05T06:42:29.028Z,59.50
2019-04-05T06:43:28.979Z,55.30
2019-04-05T06:44:28.998Z,55.90
2019-04-05T06:45:28.985Z,45.80
2019-04-05T06:46:28.955Z,47.20
2019-04-05T06:47:28.949Z,47.10
2019-04-05T06:48:29.691Z,47.90
2019-04-05T06:49:28.916Z,50.00
2019-04-05T06:50:28.966Z,52.60
2019-04-05T06:51:28.890Z,49.00
2019-04-05T06:52:28.931Z,45.30
2019-04-05T06:53:28.872Z,50.50
2019-04-05T06:54:28.865Z,47.90
2019-04-05T06:55:28.871Z,47.40
2019-04-05T06:56:28.840Z,45.40
2019-04-05T06:57:28.823Z,44.50
2019-04-05T06:58:29.477Z,44.00
2019-04-05T06:59:28.839Z,47.20
2019-04-05T07:00:28.833Z,43.20
2019-04-05T07:01:28.795Z,42.70
2019-04-05T07:02:28.790Z,45.40
2019-04-05T07:03:28.789Z,38.20
2019-04-05T07:04:30.998Z,37.70
2019-04-05T07:05:28.772Z,40.30
2019-04-05T07:06:28.768Z,39.30
2019-04-05T07:07:28.714Z,42.00
2019-04-05T07:08:28.715Z,39.60
2019-04-05T07:09:28.694Z,33.90
2019-04-05T07:10:28.718Z,35.50
2019-04-05T07:11:28.702Z,37.90
2019-04-05T07:12:28.685Z,33.00
2019-04-05T07:13:28.650Z,37.20
2019-04-05T07:14:28.651Z,39.70
2019-04-05T07:15:28.664Z,39.40
2019-04-05T07:16:28.664Z,39.90
2019-04-05T07:17:28.612Z,38.00
2019-04-05T07:18:34.283Z,38.30
2019-04-05T07:19:29.591Z,37.70
2019-04-05T07:20:28.582Z,38.20
2019-04-05T07:21:28.587Z,40.30
2019-04-05T07:22:38.534Z,40.60
2019-04-05T07:23:29.539Z,40.40
2019-04-05T07:24:28.535Z,39.90
2019-04-05T07:25:29.433Z,35.90
2019-04-05T07:26:28.562Z,32.70
2019-04-05T07:27:28.494Z,32.60
2019-04-05T07:28:28.498Z,34.50
2019-04-05T07:29:28.476Z,33.50
2019-04-05T07:30:28.953Z,32.60
2019-04-05T07:31:28.476Z,34.40
2019-04-05T07:32:31.134Z,34.00
2019-04-05T07:33:28.432Z,31.80
2019-04-05T07:34:28.486Z,35.80
2019-04-05T07:35:33.688Z,32.10
2019-04-05T07:36:29.544Z,32.70
2019-04-05T07:37:28.406Z,33.60
2019-04-05T07:38:28.504Z,32.70
2019-04-05T07:39:28.383Z,32.20
2019-04-05T07:40:28.414Z,35.10
2019-04-05T07:41:28.376Z,35.00
2019-04-05T07:42:28.427Z,31.10
2019-04-05T07:43:28.317Z,32.60
2019-04-05T07:44:28.445Z,33.30
2019-04-05T07:45:28.658Z,36.90
2019-04-05T07:46:28.379Z,34.10
2019-04-05T07:47:28.312Z,30.70
2019-04-05T07:48:28.365Z,29.30
2019-04-05T07:49:28.274Z,32.90
2019-04-05T07:50:28.278Z,30.40
2019-04-05T07:51:28.226Z,32.40
2019-04-05T07:52:28.334Z,31.20
2019-04-05T07:53:28.214Z,31.90
2019-04-05T07:54:28.327Z,31.90
2019-04-05T07:55:28.191Z,29.60
2019-04-05T07:56:28.243Z,31.40
2019-04-05T07:57:28.191Z,33.30
2019-04-05T07:58:28.225Z,30.60
2019-04-05T07:59:28.150Z,36.60
2019-04-05T08:00:28.239Z,38.00
2019-04-05T08:01:28.117Z,34.40
2019-04-05T08:02:28.179Z,31.60
2019-04-05T08:03:28.110Z,33.10
2019-04-05T08:05:29.130Z,29.10
2019-04-05T08:06:28.182Z,30.80
2019-04-05T08:07:28.060Z,31.20
2019-04-05T08:08:28.132Z,29.60
2019-04-05T08:09:28.030Z,28.60
2019-04-05T08:10:28.110Z,33.10
2019-04-05T08:11:28.017Z,30.20
2019-04-05T08:12:28.154Z,31.80
2019-04-05T08:13:27.994Z,31.60
2019-04-05T08:14:28.040Z,28.70
2019-04-05T08:15:27.988Z,31.70
2019-04-05T08:16:27.962Z,31.70
2019-04-05T08:17:27.995Z,31.30
2019-04-05T08:18:27.970Z,28.70
2019-04-05T08:19:27.936Z,28.20
2019-04-05T08:20:27.917Z,27.80
2019-04-05T08:21:27.899Z,25.20
2019-04-05T08:22:27.914Z,24.90
2019-04-05T08:23:27.933Z,27.20
2019-04-05T08:24:27.898Z,27.90
2019-04-05T08:25:27.860Z,30.00
2019-04-05T08:26:27.850Z,26.60
2019-04-05T08:27:27.846Z,24.80
2019-04-05T08:28:29.635Z,26.30
2019-04-05T08:29:27.820Z,25.30
2019-04-05T08:30:27.805Z,25.60
2019-04-05T08:31:27.790Z,24.80
2019-04-05T08:32:27.821Z,24.90
2019-04-05T08:33:27.813Z,24.50
2019-04-05T08:34:27.783Z,23.50
2019-04-05T08:35:27.754Z,24.80
2019-04-05T08:36:27.751Z,25.70
2019-04-05T08:37:27.735Z,25.30
2019-04-05T08:38:27.760Z,27.40
2019-04-05T08:39:27.707Z,28.30
2019-04-05T08:40:27.705Z,27.50
2019-04-05T08:41:27.689Z,25.60
2019-04-05T08:42:27.680Z,24.70
2019-04-05T08:43:27.676Z,24.20
2019-04-05T08:44:27.690Z,20.50
2019-04-05T08:45:27.657Z,19.00
2019-04-05T08:46:27.634Z,20.90
2019-04-05T08:47:27.632Z,21.90
2019-04-05T08:48:27.758Z,24.00
2019-04-05T08:49:27.665Z,25.20
2019-04-05T08:50:27.595Z,24.20
2019-04-05T08:51:27.612Z,23.60
2019-04-05T08:52:27.575Z,23.30
2019-04-05T08:53:27.612Z,25.30
2019-04-05T08:54:33.239Z,25.50
2019-04-05T08:55:28.541Z,23.50
2019-04-05T08:56:27.532Z,21.70
2019-04-05T08:57:27.513Z,23.00
2019-04-05T08:58:33.190Z,21.10
2019-04-05T08:59:28.532Z,21.10
2019-04-05T09:00:27.481Z,21.30
2019-04-05T09:01:27.473Z,21.10
2019-04-05T09:02:27.480Z,22.20
2019-04-05T09:03:27.448Z,25.00
2019-04-05T09:04:27.470Z,24.00
2019-04-05T09:05:27.432Z,23.60
2019-04-05T09:06:27.422Z,24.50
2019-04-05T09:07:27.407Z,24.60
2019-04-05T09:08:27.393Z,25.50
2019-04-05T09:09:27.421Z,24.90
2019-04-05T09:10:27.397Z,22.90
2019-04-05T09:11:27.351Z,23.10
2019-04-05T09:12:27.352Z,24.60
2019-04-05T09:13:27.342Z,24.00
2019-04-05T09:14:27.335Z,24.60
2019-04-05T09:15:27.350Z,23.30
2019-04-05T09:16:27.316Z,25.10
2019-04-05T09:17:27.298Z,22.80
2019-04-05T09:18:27.289Z,26.80
2019-04-05T09:19:27.289Z,25.90
2019-04-05T09:20:27.303Z,26.60
2019-04-05T09:21:27.250Z,27.60
2019-04-05T09:22:27.269Z,28.50
2019-04-05T09:23:27.230Z,28.20
2019-04-05T09:24:27.229Z,26.40
2019-04-05T09:25:27.289Z,26.20
2019-04-05T09:26:27.202Z,26.30
2019-04-05T09:27:27.187Z,25.90
2019-04-05T09:28:27.175Z,24.80
2019-04-05T09:29:27.176Z,26.00
2019-04-05T09:30:27.225Z,23.70
2019-04-05T09:31:27.142Z,26.40
2019-04-05T09:32:27.144Z,26.20
2019-04-05T09:33:27.125Z,22.70
2019-04-05T09:34:27.140Z,25.00
2019-04-05T09:35:27.120Z,25.80
2019-04-05T09:36:27.099Z,27.00
2019-04-05T09:37:27.109Z,23.40
2019-04-05T09:38:27.068Z,23.00
2019-04-05T09:39:27.067Z,23.00
2019-04-05T09:40:27.083Z,23.90
2019-04-05T09:41:27.033Z,24.60
2019-04-05T09:42:27.035Z,25.60
2019-04-05T09:43:27.018Z,25.90
2019-04-05T09:49:36.965Z,25.60
2019-04-05T09:50:26.038Z,25.60
2019-04-05T09:51:26.055Z,23.40
2019-04-05T09:52:26.016Z,26.50
2019-04-05T09:53:26.008Z,27.00
2019-04-05T09:54:25.995Z,26.80
2019-04-05T09:55:25.989Z,25.90
2019-04-05T09:56:26.129Z,27.50
2019-04-05T09:57:25.977Z,25.30
2019-04-05T09:58:25.967Z,25.90
2019-04-05T09:59:25.948Z,24.40
2019-04-05T10:00:25.936Z,24.00
2019-04-05T10:01:25.952Z,26.70
2019-04-05T10:02:25.902Z,25.50
2019-04-05T10:03:25.904Z,24.70
2019-04-05T10:04:25.936Z,25.60
2019-04-05T10:05:25.879Z,24.10
2019-04-05T10:06:25.895Z,22.80
2019-04-05T10:07:25.883Z,24.50
2019-04-05T10:08:25.842Z,24.10
2019-04-05T10:09:25.849Z,23.10
2019-04-05T10:10:25.818Z,24.90
2019-04-05T10:11:25.821Z,23.30
2019-04-05T10:12:25.827Z,22.30
2019-04-05T10:13:25.791Z,24.60
2019-04-05T10:14:25.771Z,22.00
2019-04-05T10:15:25.768Z,21.90
2019-04-05T10:16:25.747Z,21.70
2019-04-05T10:17:25.796Z,22.10
2019-04-05T10:18:25.752Z,19.80
2019-04-05T10:19:25.751Z,21.90
2019-04-05T10:20:25.705Z,20.60
2019-04-05T10:21:25.703Z,22.60
2019-04-05T10:22:25.715Z,22.50
2019-04-05T10:23:25.677Z,23.30
2019-04-05T10:24:25.672Z,21.70
2019-04-05T10:25:25.806Z,22.40
2019-04-05T10:26:25.652Z,22.60
2019-04-05T10:27:25.725Z,22.80
2019-04-05T10:28:25.691Z,22.60
2019-04-05T10:30:26.667Z,22.90
2019-04-05T10:32:26.653Z,23.30
2019-04-05T10:33:27.857Z,25.50
2019-04-05T10:34:25.550Z,23.90
2019-04-05T10:35:27.895Z,24.20
2019-04-05T10:36:25.534Z,23.50
2019-04-05T10:37:28.024Z,23.10
2019-04-05T10:38:25.545Z,22.30
2019-04-05T10:39:28.106Z,23.00
2019-04-05T10:40:25.492Z,23.50
2019-04-05T10:41:28.224Z,23.50
2019-04-05T10:42:25.507Z,24.30
2019-04-05T10:44:26.513Z,24.80
2019-04-05T10:45:28.575Z,25.60
2019-04-05T10:46:25.438Z,26.10
2019-04-05T10:47:28.263Z,25.10
2019-04-05T10:48:25.441Z,24.70
2019-04-05T10:50:26.451Z,24.50
2019-04-05T10:52:26.414Z,24.30
2019-04-05T10:53:30.371Z,23.70
2019-04-05T10:54:25.346Z,24.00
2019-04-05T10:56:26.375Z,22.50
2019-04-05T10:58:26.385Z,23.90
2019-04-05T11:00:26.333Z,23.60
2019-04-05T11:02:26.381Z,24.10
2019-04-05T11:03:28.710Z,25.20
2019-04-05T11:04:25.262Z,24.90
2019-04-05T11:06:26.287Z,23.70
2019-04-05T11:08:26.272Z,24.00
2019-04-05T11:10:26.270Z,24.80
2019-04-05T11:12:26.217Z,24.80
2019-04-05T11:13:28.674Z,24.70
2019-04-05T11:14:25.123Z,23.60
2019-04-05T11:15:31.034Z,24.70
2019-04-05T11:16:25.113Z,25.00
2019-04-05T11:17:28.886Z,23.40
2019-04-05T11:18:25.103Z,24.20
2019-04-05T11:19:30.265Z,24.50
2019-04-05T11:20:25.067Z,23.80
2019-04-05T11:21:29.038Z,22.30
2019-04-05T11:22:25.061Z,22.00
2019-04-05T11:24:28.446Z,22.30
2019-04-05T11:25:25.005Z,22.40
2019-04-05T11:26:27.106Z,23.30
2019-04-05T11:27:24.995Z,22.30
2019-04-05T11:28:27.252Z,20.90
2019-04-05T11:29:25.013Z,21.80
2019-04-05T11:30:27.038Z,22.10
2019-04-05T11:31:24.958Z,21.40
2019-04-05T11:32:24.996Z,21.70
2019-04-05T11:33:24.918Z,20.80
2019-04-05T11:34:25.047Z,22.10
2019-04-05T11:35:24.898Z,20.50
2019-04-05T11:36:24.931Z,22.50
2019-04-05T11:37:24.868Z,21.30
2019-04-05T11:38:24.933Z,20.30
2019-04-05T11:39:24.889Z,22.00
2019-04-05T11:40:24.950Z,22.60
2019-04-05T11:41:24.823Z,23.10
2019-04-05T11:42:24.864Z,22.50
2019-04-05T11:43:26.946Z,23.10
2019-04-05T11:44:24.899Z,22.50
2019-04-05T11:45:24.807Z,22.50
2019-04-05T11:46:24.890Z,19.90
2019-04-05T11:47:24.769Z,21.50
2019-04-05T11:48:24.800Z,21.50
2019-04-05T11:49:24.794Z,21.20
2019-04-05T11:50:34.460Z,21.00
2019-04-05T11:51:25.757Z,22.10
2019-04-05T11:52:24.824Z,20.10
2019-04-05T11:53:24.710Z,20.10
2019-04-05T11:54:24.768Z,19.80
2019-04-05T11:55:24.681Z,19.30
2019-04-05T11:56:24.769Z,18.10
2019-04-05T11:57:24.654Z,19.50
2019-04-05T11:58:24.767Z,19.50
2019-04-05T11:59:24.676Z,18.20
2019-04-05T12:00:24.676Z,18.90
2019-04-05T12:01:24.605Z,20.70
2019-04-05T12:02:24.693Z,19.30
2019-04-05T12:03:24.600Z,17.40
2019-04-05T12:04:24.751Z,17.90
2019-04-05T12:05:26.967Z,18.60
2019-04-05T12:06:24.611Z,19.10
2019-04-05T12:07:26.622Z,19.00
2019-04-05T12:08:24.645Z,18.80
2019-04-05T12:09:24.569Z,18.70
2019-04-05T12:10:24.542Z,18.30
2019-04-05T12:11:24.502Z,19.70
2019-04-05T12:12:25.702Z,18.40
2019-04-05T12:13:24.499Z,18.40
2019-04-05T12:14:30.417Z,20.10
2019-04-05T12:15:25.491Z,18.80
2019-04-05T12:16:24.479Z,19.20
2019-04-05T12:17:24.455Z,18.40
2019-04-05T12:18:24.505Z,18.80
2019-04-05T12:19:24.422Z,19.00
2019-04-05T12:20:24.556Z,20.50
2019-04-05T12:21:24.402Z,20.10
2019-04-05T12:22:24.432Z,18.10
2019-04-05T12:23:24.391Z,18.20
2019-04-05T12:24:24.448Z,18.60
2019-04-05T12:25:24.386Z,17.70
2019-04-05T12:26:24.656Z,16.80
2019-04-05T12:27:24.499Z,19.10
2019-04-05T12:28:24.361Z,18.80
2019-04-05T12:29:24.320Z,18.40
2019-04-05T12:30:24.746Z,18.70
2019-04-05T12:31:24.293Z,18.20
2019-04-05T12:32:33.610Z,17.80
2019-04-05T12:33:25.261Z,19.70
2019-04-05T12:35:25.321Z,17.70
2019-04-05T12:36:24.417Z,17.30
2019-04-05T12:37:24.230Z,17.70
2019-04-05T12:38:28.453Z,17.60
2019-04-05T12:39:25.205Z,19.40
2019-04-05T12:40:24.278Z,18.00
2019-04-05T12:41:24.206Z,17.80
2019-04-05T12:42:24.268Z,18.60
2019-04-05T12:43:24.165Z,19.80
2019-04-05T12:44:24.265Z,17.30
2019-04-05T12:45:24.137Z,18.90
2019-04-05T12:46:24.518Z,18.50
2019-04-05T12:47:24.112Z,18.30
2019-04-05T12:48:24.198Z,17.50
2019-04-05T12:49:24.118Z,18.50
2019-04-05T12:50:24.140Z,18.80
2019-04-05T12:51:24.237Z,19.00
2019-04-05T12:52:27.409Z,19.10
2019-04-05T12:53:24.665Z,18.50
2019-04-05T12:54:24.149Z,20.40
2019-04-05T12:55:24.562Z,20.00
2019-04-05T12:56:26.606Z,19.20
2019-04-05T12:57:27.492Z,19.80
2019-04-05T12:58:25.988Z,19.70
2019-04-05T12:59:25.558Z,20.90
2019-04-05T13:00:26.072Z,20.40
2019-04-05T13:01:24.068Z,20.40
2019-04-05T13:02:33.338Z,21.00
2019-04-05T13:03:24.944Z,19.70
2019-04-05T13:04:23.997Z,19.80
2019-04-05T13:05:23.923Z,19.30
2019-04-05T13:06:24.065Z,19.00
2019-04-05T13:07:23.920Z,20.50
2019-04-05T13:08:23.927Z,18.20
2019-04-05T13:09:24.701Z,20.20
2019-04-05T13:10:26.181Z,18.90
2019-04-05T13:11:26.645Z,19.60
2019-04-05T13:12:26.320Z,18.50
2019-04-05T13:13:26.564Z,18.70